createdAt,value
2022-09-11T00:00:23.185Z,937.58
2022-09-11T00:01:23.201Z,937.62
2022-09-11T00:02:23.299Z,937.63
2022-09-11T00:03:23.240Z,937.60
2022-09-11T00:04:23.248Z,937.64
2022-09-11T00:05:23.261Z,937.59
2022-09-11T00:06:29.359Z,937.58
2022-09-11T00:07:23.293Z,937.57
2022-09-11T00:08:23.327Z,937.64
2022-09-11T00:09:23.323Z,937.64
2022-09-11T00:10:23.338Z,937.66
2022-09-11T00:11:23.355Z,937.62
2022-09-11T00:12:23.369Z,937.64
2022-09-11T00:13:23.385Z,937.65
2022-09-11T00:14:23.400Z,937.64
2022-09-11T00:15:23.416Z,937.65
2022-09-11T00:16:23.464Z,937.68
2022-09-11T00:17:23.445Z,937.73
2022-09-11T00:18:23.461Z,937.79
2022-09-11T00:19:23.476Z,937.81
2022-09-11T00:20:23.497Z,937.80
2022-09-11T00:21:23.505Z,937.80
2022-09-11T00:22:23.522Z,937.80
2022-09-11T00:23:23.536Z,937.86
2022-09-11T00:24:23.572Z,937.84
2022-09-11T00:25:23.567Z,937.78
2022-09-11T00:26:23.582Z,937.78
2022-09-11T00:27:23.598Z,937.82
2022-09-11T00:28:23.615Z,937.87
2022-09-11T00:29:23.629Z,937.89
2022-09-11T00:30:23.645Z,937.86
2022-09-11T00:31:23.733Z,937.88
2022-09-11T00:32:23.675Z,937.92
2022-09-11T00:33:23.689Z,937.97
2022-09-11T00:34:23.703Z,938.00
2022-09-11T00:35:23.720Z,938.04
2022-09-11T00:36:23.735Z,938.05
2022-09-11T00:37:23.751Z,938.06
2022-09-11T00:38:23.766Z,938.03
2022-09-11T00:39:23.781Z,938.02
2022-09-11T00:40:23.815Z,937.98
2022-09-11T00:41:23.812Z,938.01
2022-09-11T00:42:23.826Z,938.00
2022-09-11T00:43:23.842Z,938.03
2022-09-11T00:44:23.857Z,938.05
2022-09-11T00:45:23.870Z,938.03
2022-09-11T00:46:23.887Z,938.00
2022-09-11T00:47:23.901Z,938.04
2022-09-11T00:48:23.916Z,938.05
2022-09-11T00:49:23.933Z,938.10
2022-09-11T00:50:23.948Z,938.19
2022-09-11T00:51:23.962Z,938.29
2022-09-11T00:52:23.977Z,938.42
2022-09-11T00:53:23.992Z,938.44
2022-09-11T00:54:24.007Z,938.49
2022-09-11T00:55:24.023Z,938.54
2022-09-11T00:56:24.054Z,938.51
2022-09-11T00:57:24.057Z,938.49
2022-09-11T00:58:24.068Z,938.46
2022-09-11T00:59:24.083Z,938.44
2022-09-11T01:00:24.099Z,938.37
2022-09-11T01:01:24.114Z,938.31
2022-09-11T01:02:27.300Z,938.26
2022-09-11T01:03:24.143Z,938.21
2022-09-11T01:04:24.159Z,938.14
2022-09-11T01:05:24.173Z,938.12
2022-09-11T01:06:24.192Z,938.09
2022-09-11T01:07:24.207Z,938.13
2022-09-11T01:08:24.218Z,938.08
2022-09-11T01:09:24.232Z,938.13
2022-09-11T01:10:24.250Z,938.12
2022-09-11T01:11:24.263Z,938.13
2022-09-11T01:12:24.297Z,938.08
2022-09-11T01:13:24.296Z,938.01
2022-09-11T01:14:24.309Z,937.96
2022-09-11T01:15:24.323Z,938.03
2022-09-11T01:16:24.368Z,938.00
2022-09-11T01:17:24.357Z,938.10
2022-09-11T01:18:24.367Z,938.10
2022-09-11T01:19:24.385Z,938.10
2022-09-11T01:20:24.398Z,938.11
2022-09-11T01:21:24.413Z,938.00
2022-09-11T01:22:24.428Z,937.98
2022-09-11T01:23:24.446Z,937.94
2022-09-11T01:24:24.458Z,937.92
2022-09-11T01:25:24.474Z,937.90
2022-09-11T01:26:24.491Z,937.92
2022-09-11T01:27:24.503Z,937.93
2022-09-11T01:28:24.538Z,937.97
2022-09-11T01:29:24.534Z,937.93
2022-09-11T01:30:24.548Z,937.89
2022-09-11T01:31:24.598Z,937.94
2022-09-11T01:32:24.579Z,937.96
2022-09-11T01:33:24.593Z,937.97
2022-09-11T01:34:24.608Z,937.94
2022-09-11T01:35:24.623Z,937.92
2022-09-11T01:36:24.638Z,937.91
2022-09-11T01:37:24.654Z,937.96
2022-09-11T01:38:24.667Z,938.03
2022-09-11T01:39:24.683Z,938.07
2022-09-11T01:40:24.698Z,938.16
2022-09-11T01:41:24.712Z,938.24
2022-09-11T01:42:24.728Z,938.33
2022-09-11T01:43:24.742Z,938.40
2022-09-11T01:44:24.780Z,938.48
2022-09-11T01:45:24.833Z,938.41
2022-09-11T01:46:24.786Z,938.39
2022-09-11T01:47:24.805Z,938.32
2022-09-11T01:48:24.817Z,938.21
2022-09-11T01:49:24.838Z,938.20
2022-09-11T01:50:24.846Z,938.28
2022-09-11T01:51:24.863Z,938.41
2022-09-11T01:52:24.877Z,938.49
2022-09-11T01:53:24.890Z,938.59
2022-09-11T01:54:24.906Z,938.59
2022-09-11T01:55:24.924Z,938.57
2022-09-11T01:56:24.936Z,938.52
2022-09-11T01:57:24.953Z,938.50
2022-09-11T01:58:24.969Z,938.56
2022-09-11T01:59:24.981Z,938.61
2022-09-11T02:00:25.015Z,938.61
2022-09-11T02:01:25.011Z,938.55
2022-09-11T02:02:25.026Z,938.52
2022-09-11T02:03:25.042Z,938.47
2022-09-11T02:04:25.057Z,938.50
2022-09-11T02:05:25.070Z,938.54
2022-09-11T02:06:25.085Z,938.55
2022-09-11T02:07:25.101Z,938.55
2022-09-11T02:08:25.114Z,938.56
2022-09-11T02:09:25.131Z,938.59
2022-09-11T02:10:25.145Z,938.75
2022-09-11T02:11:25.158Z,938.81
2022-09-11T02:12:25.175Z,938.85
2022-09-11T02:13:27.862Z,938.89
2022-09-11T02:14:25.204Z,938.93
2022-09-11T02:15:25.217Z,939.04
2022-09-11T02:16:25.293Z,939.19
2022-09-11T02:17:25.248Z,939.37
2022-09-11T02:18:25.264Z,939.41
2022-09-11T02:19:25.279Z,939.46
2022-09-11T02:20:25.294Z,939.47
2022-09-11T02:21:25.308Z,939.51
2022-09-11T02:22:25.323Z,939.48
2022-09-11T02:23:25.345Z,939.40
2022-09-11T02:24:25.352Z,939.37
2022-09-11T02:25:25.368Z,939.28
2022-09-11T02:26:25.382Z,939.33
2022-09-11T02:27:25.396Z,939.25
2022-09-11T02:28:25.410Z,939.37
2022-09-11T02:29:25.426Z,939.37
2022-09-11T02:30:25.439Z,939.41
2022-09-11T02:31:25.515Z,939.44
2022-09-11T02:32:25.487Z,939.38
2022-09-11T02:33:25.485Z,939.20
2022-09-11T02:34:25.501Z,938.91
2022-09-11T02:35:25.513Z,938.81
2022-09-11T02:36:25.529Z,938.70
2022-09-11T02:37:25.543Z,938.53
2022-09-11T02:38:25.558Z,938.46
2022-09-11T02:39:25.573Z,938.47
2022-09-11T02:40:25.587Z,938.52
2022-09-11T02:41:25.603Z,938.60
2022-09-11T02:42:25.617Z,938.75
2022-09-11T02:43:25.632Z,938.89
2022-09-11T02:44:25.647Z,939.13
2022-09-11T02:45:25.692Z,939.35
2022-09-11T02:46:25.675Z,939.45
2022-09-11T02:47:25.690Z,939.53
2022-09-11T02:48:25.726Z,939.46
2022-09-11T02:49:25.720Z,939.40
2022-09-11T02:50:25.735Z,939.20
2022-09-11T02:51:25.749Z,938.93
2022-09-11T02:52:25.763Z,938.54
2022-09-11T02:53:25.785Z,938.18
2022-09-11T02:54:25.797Z,937.93
2022-09-11T02:55:25.808Z,937.80
2022-09-11T02:56:25.822Z,937.76
2022-09-11T02:57:25.835Z,937.78
2022-09-11T02:58:25.850Z,937.79
2022-09-11T02:59:25.865Z,937.80
2022-09-11T03:00:25.880Z,937.84
2022-09-11T03:01:25.995Z,937.91
2022-09-11T03:02:25.909Z,937.98
2022-09-11T03:03:25.925Z,938.01
2022-09-11T03:04:25.957Z,938.01
2022-09-11T03:05:25.953Z,937.99
2022-09-11T03:06:25.967Z,937.92
2022-09-11T03:07:25.982Z,937.94
2022-09-11T03:08:25.997Z,937.92
2022-09-11T03:09:26.010Z,937.98
2022-09-11T03:10:26.028Z,937.98
2022-09-11T03:11:26.043Z,937.95
2022-09-11T03:12:26.055Z,937.91
2022-09-11T03:13:26.071Z,937.82
2022-09-11T03:14:26.085Z,937.75
2022-09-11T03:15:26.100Z,937.72
2022-09-11T03:16:26.186Z,937.67
2022-09-11T03:17:26.130Z,937.67
2022-09-11T03:18:26.142Z,937.66
2022-09-11T03:19:26.156Z,937.65
2022-09-11T03:20:26.195Z,937.61
2022-09-11T03:21:26.187Z,937.60
2022-09-11T03:22:26.203Z,937.52
2022-09-11T03:23:26.217Z,937.45
2022-09-11T03:24:26.234Z,937.40
2022-09-11T03:25:26.245Z,937.46
2022-09-11T03:26:26.261Z,937.46
2022-09-11T03:27:26.275Z,937.48
2022-09-11T03:28:26.290Z,937.51
2022-09-11T03:29:26.305Z,937.57
2022-09-11T03:30:26.318Z,937.58
2022-09-11T03:31:26.385Z,937.54
2022-09-11T03:32:26.347Z,937.50
2022-09-11T03:33:26.365Z,937.46
2022-09-11T03:34:26.378Z,937.53
2022-09-11T03:35:26.390Z,937.53
2022-09-11T03:36:26.425Z,937.59
2022-09-11T03:37:26.423Z,937.61
2022-09-11T03:38:26.435Z,937.67
2022-09-11T03:39:26.451Z,937.69
2022-09-11T03:40:26.463Z,937.73
2022-09-11T03:41:26.479Z,937.76
2022-09-11T03:42:26.492Z,937.74
2022-09-11T03:43:26.506Z,937.76
2022-09-11T03:44:26.523Z,937.71
2022-09-11T03:45:26.577Z,937.72
2022-09-11T03:46:26.553Z,937.72
2022-09-11T03:47:26.566Z,937.78
2022-09-11T03:48:26.582Z,937.78
2022-09-11T03:49:26.596Z,937.81
2022-09-11T03:50:26.612Z,937.81
2022-09-11T03:51:26.626Z,937.84
2022-09-11T03:52:26.659Z,937.81
2022-09-11T03:53:26.652Z,937.78
2022-09-11T03:54:26.667Z,937.70
2022-09-11T03:55:26.681Z,937.61
2022-09-11T03:56:26.696Z,937.65
2022-09-11T03:57:26.711Z,937.67
2022-09-11T03:58:26.931Z,937.71
2022-09-11T03:59:26.740Z,937.79
2022-09-11T04:00:26.755Z,937.87
2022-09-11T04:01:26.770Z,937.86
2022-09-11T04:02:26.782Z,937.84
2022-09-11T04:03:26.798Z,937.83
2022-09-11T04:04:26.813Z,937.79
2022-09-11T04:05:26.827Z,937.80
2022-09-11T04:06:26.841Z,937.80
2022-09-11T04:07:26.857Z,937.89
2022-09-11T04:08:26.891Z,937.89
2022-09-11T04:09:26.885Z,937.86
2022-09-11T04:10:26.899Z,937.88
2022-09-11T04:11:26.915Z,937.87
2022-09-11T04:12:26.929Z,937.92
2022-09-11T04:13:26.942Z,937.92
2022-09-11T04:14:26.958Z,937.94
2022-09-11T04:15:26.971Z,937.95
2022-09-11T04:16:27.308Z,937.93
2022-09-11T04:17:27.001Z,937.90
2022-09-11T04:18:27.014Z,937.81
2022-09-11T04:19:27.030Z,937.76
2022-09-11T04:20:27.044Z,937.77
2022-09-11T04:21:27.057Z,937.81
2022-09-11T04:22:27.072Z,937.87
2022-09-11T04:23:27.088Z,937.86
2022-09-11T04:24:27.122Z,937.82
2022-09-11T04:25:27.116Z,937.82
2022-09-11T04:26:27.130Z,937.76
2022-09-11T04:27:27.145Z,937.79
2022-09-11T04:28:27.159Z,937.80
2022-09-11T04:29:27.172Z,937.80
2022-09-11T04:30:27.187Z,937.84
2022-09-11T04:31:27.243Z,937.90
2022-09-11T04:32:27.217Z,937.93
2022-09-11T04:33:27.230Z,937.92
2022-09-11T04:34:27.249Z,937.92
2022-09-11T04:35:27.261Z,937.94
2022-09-11T04:36:27.365Z,937.91
2022-09-11T04:37:27.288Z,937.96
2022-09-11T04:38:27.301Z,937.92
2022-09-11T04:39:27.317Z,937.99
2022-09-11T04:40:27.348Z,938.02
2022-09-11T04:41:27.346Z,938.12
2022-09-11T04:42:27.357Z,938.11
2022-09-11T04:43:27.373Z,938.11
2022-09-11T04:44:27.389Z,938.15
2022-09-11T04:45:27.441Z,938.14
2022-09-11T04:46:27.417Z,938.17
2022-09-11T04:47:27.431Z,938.18
2022-09-11T04:48:27.446Z,938.19
2022-09-11T04:49:27.460Z,938.21
2022-09-11T04:50:27.476Z,938.14
2022-09-11T04:51:29.171Z,938.15
2022-09-11T04:52:27.503Z,938.20
2022-09-11T04:53:27.518Z,938.23
2022-09-11T04:54:27.533Z,938.26
2022-09-11T04:55:27.545Z,938.24
2022-09-11T04:56:27.580Z,938.21
2022-09-11T04:57:27.573Z,938.18
2022-09-11T04:58:27.588Z,938.20
2022-09-11T04:59:27.601Z,938.16
2022-09-11T05:00:27.615Z,938.11
2022-09-11T05:01:27.629Z,938.15
2022-09-11T05:02:27.703Z,938.04
2022-09-11T05:03:27.659Z,938.06
2022-09-11T05:04:27.672Z,938.08
2022-09-11T05:05:27.688Z,938.10
2022-09-11T05:06:27.699Z,938.10
2022-09-11T05:07:27.715Z,938.04
2022-09-11T05:08:27.731Z,938.02
2022-09-11T05:09:27.812Z,938.10
2022-09-11T05:10:27.758Z,938.11
2022-09-11T05:11:27.771Z,938.08
2022-09-11T05:12:27.804Z,938.07
2022-09-11T05:13:27.800Z,938.06
2022-09-11T05:14:27.813Z,938.07
2022-09-11T05:15:27.827Z,938.06
2022-09-11T05:16:27.887Z,938.06
2022-09-11T05:17:27.856Z,938.08
2022-09-11T05:18:27.869Z,938.08
2022-09-11T05:19:27.884Z,938.09
2022-09-11T05:20:27.901Z,938.04
2022-09-11T05:21:27.911Z,938.01
2022-09-11T05:22:27.928Z,937.99
2022-09-11T05:23:27.941Z,938.01
2022-09-11T05:24:27.966Z,938.05
2022-09-11T05:25:27.968Z,938.09
2022-09-11T05:26:27.984Z,938.10
2022-09-11T05:27:28.001Z,938.04
2022-09-11T05:28:28.030Z,938.11
2022-09-11T05:29:31.676Z,938.07
2022-09-11T05:30:28.040Z,938.09
2022-09-11T05:31:28.111Z,938.02
2022-09-11T05:32:28.066Z,938.10
2022-09-11T05:33:28.082Z,938.08
2022-09-11T05:34:28.097Z,938.04
2022-09-11T05:35:32.086Z,938.13
2022-09-11T05:36:28.124Z,938.05
2022-09-11T05:37:28.136Z,938.04
2022-09-11T05:38:28.150Z,938.02
2022-09-11T05:39:28.167Z,938.08
2022-09-11T05:40:28.180Z,937.97
2022-09-11T05:41:28.197Z,938.03
2022-09-11T05:42:28.208Z,938.06
2022-09-11T05:43:28.222Z,938.06
2022-09-11T05:44:28.253Z,937.97
2022-09-11T05:45:28.282Z,937.99
2022-09-11T05:46:28.264Z,937.97
2022-09-11T05:47:28.278Z,937.99
2022-09-11T05:48:28.290Z,937.94
2022-09-11T05:49:28.306Z,937.92
2022-09-11T05:50:28.320Z,937.91
2022-09-11T05:51:28.334Z,937.88
2022-09-11T05:52:28.347Z,937.91
2022-09-11T05:53:28.362Z,937.94
2022-09-11T05:54:28.377Z,937.91
2022-09-11T05:55:28.391Z,937.96
2022-09-11T05:56:28.405Z,937.88
2022-09-11T05:57:28.417Z,937.95
2022-09-11T05:58:28.435Z,937.92
2022-09-11T05:59:28.444Z,937.96
2022-09-11T06:00:28.477Z,937.96
2022-09-11T06:01:28.534Z,937.99
2022-09-11T06:02:28.526Z,938.03
2022-09-11T06:03:28.500Z,938.06
2022-09-11T06:04:28.516Z,938.04
2022-09-11T06:05:28.535Z,938.05
2022-09-11T06:06:28.543Z,938.00
2022-09-11T06:07:28.557Z,937.96
2022-09-11T06:08:28.574Z,937.93
2022-09-11T06:09:28.585Z,937.95
2022-09-11T06:10:28.597Z,937.96
2022-09-11T06:11:28.611Z,937.95
2022-09-11T06:12:28.626Z,937.91
2022-09-11T06:13:28.642Z,937.92
2022-09-11T06:14:28.655Z,937.90
2022-09-11T06:15:45.524Z,937.88
2022-09-11T06:16:28.742Z,937.91
2022-09-11T06:17:28.696Z,937.93
2022-09-11T06:18:28.708Z,937.99
2022-09-11T06:19:28.725Z,938.07
2022-09-11T06:20:28.739Z,938.11
2022-09-11T06:21:28.751Z,938.12
2022-09-11T06:22:28.764Z,938.13
2022-09-11T06:23:28.779Z,938.08
2022-09-11T06:24:28.795Z,938.05
2022-09-11T06:25:28.806Z,938.03
2022-09-11T06:26:28.821Z,937.96
2022-09-11T06:27:28.833Z,937.98
2022-09-11T06:28:28.847Z,937.99
2022-09-11T06:29:28.862Z,937.99
2022-09-11T06:30:28.949Z,938.00
2022-09-11T06:31:28.889Z,937.98
2022-09-11T06:32:28.922Z,937.99
2022-09-11T06:33:28.917Z,937.99
2022-09-11T06:34:28.929Z,937.95
2022-09-11T06:35:28.945Z,937.97
2022-09-11T06:36:28.959Z,937.92
2022-09-11T06:37:28.971Z,937.94
2022-09-11T06:38:28.985Z,937.91
2022-09-11T06:39:29.000Z,937.94
2022-09-11T06:40:29.016Z,937.95
2022-09-11T06:41:29.032Z,937.96
2022-09-11T06:42:29.042Z,937.95
2022-09-11T06:43:29.056Z,937.92
2022-09-11T06:44:29.069Z,938.01
2022-09-11T06:45:29.082Z,938.06
2022-09-11T06:46:29.096Z,938.10
2022-09-11T06:47:29.112Z,938.05
2022-09-11T06:48:29.144Z,938.05
2022-09-11T06:49:29.139Z,937.97
2022-09-11T06:50:29.160Z,937.98
2022-09-11T06:51:29.166Z,937.97
2022-09-11T06:52:29.181Z,937.98
2022-09-11T06:53:29.195Z,938.03
2022-09-11T06:54:29.208Z,937.99
2022-09-11T06:55:29.220Z,938.02
2022-09-11T06:56:29.234Z,938.04
2022-09-11T06:57:29.249Z,938.09
2022-09-11T06:58:29.261Z,938.11
2022-09-11T06:59:29.277Z,938.14
2022-09-11T07:00:29.291Z,938.03
2022-09-11T07:01:29.459Z,937.96
2022-09-11T07:02:29.317Z,937.93
2022-09-11T07:03:29.331Z,937.92
2022-09-11T07:04:29.362Z,937.89
2022-09-11T07:05:29.357Z,937.93
2022-09-11T07:06:29.373Z,937.99
2022-09-11T07:07:29.387Z,937.95
2022-09-11T07:08:29.401Z,937.99
2022-09-11T07:09:29.412Z,937.99
2022-09-11T07:10:29.427Z,937.96
2022-09-11T07:11:29.441Z,938.00
2022-09-11T07:12:29.454Z,938.04
2022-09-11T07:13:29.470Z,938.03
2022-09-11T07:14:29.481Z,938.05
2022-09-11T07:15:29.494Z,937.97
2022-09-11T07:16:29.590Z,937.97
2022-09-11T07:17:29.523Z,937.94
2022-09-11T07:18:29.573Z,937.95
2022-09-11T07:19:29.551Z,937.93
2022-09-11T07:20:29.585Z,937.92
2022-09-11T07:21:29.577Z,937.97
2022-09-11T07:22:29.593Z,937.98
2022-09-11T07:23:29.605Z,937.97
2022-09-11T07:24:29.618Z,937.94
2022-09-11T07:25:29.631Z,937.92
2022-09-11T07:26:29.645Z,937.89
2022-09-11T07:27:29.665Z,937.91
2022-09-11T07:28:29.676Z,937.93
2022-09-11T07:29:29.685Z,937.87
2022-09-11T07:30:29.719Z,937.81
2022-09-11T07:31:29.716Z,937.86
2022-09-11T07:32:29.728Z,937.75
2022-09-11T07:33:29.741Z,937.81
2022-09-11T07:34:29.756Z,937.80
2022-09-11T07:35:29.769Z,937.79
2022-09-11T07:36:29.802Z,937.79
2022-09-11T07:37:29.795Z,937.75
2022-09-11T07:38:29.809Z,937.73
2022-09-11T07:39:29.824Z,937.69
2022-09-11T07:40:29.837Z,937.72
2022-09-11T07:41:29.849Z,937.72
2022-09-11T07:42:29.865Z,937.69
2022-09-11T07:43:29.876Z,937.68
2022-09-11T07:44:29.892Z,937.66
2022-09-11T07:45:29.970Z,937.66
2022-09-11T07:46:29.918Z,937.65
2022-09-11T07:47:29.931Z,937.67
2022-09-11T07:48:29.945Z,937.71
2022-09-11T07:49:29.959Z,937.79
2022-09-11T07:50:29.972Z,937.78
2022-09-11T07:51:29.985Z,937.86
2022-09-11T07:52:30.021Z,937.85
2022-09-11T07:53:30.014Z,937.91
2022-09-11T07:54:30.028Z,937.94
2022-09-11T07:55:30.042Z,937.95
2022-09-11T07:56:30.054Z,937.96
2022-09-11T07:57:30.066Z,937.93
2022-09-11T07:58:30.081Z,937.98
2022-09-11T07:59:30.095Z,937.96
2022-09-11T08:00:34.001Z,938.02
2022-09-11T08:01:30.213Z,938.05
2022-09-11T08:02:30.193Z,938.10
2022-09-11T08:03:30.149Z,938.14
2022-09-11T08:04:30.163Z,938.12
2022-09-11T08:05:30.175Z,938.15
2022-09-11T08:06:30.192Z,938.10
2022-09-11T08:07:30.203Z,938.08
2022-09-11T08:08:30.238Z,938.13
2022-09-11T08:09:30.230Z,938.11
2022-09-11T08:10:30.245Z,938.10
2022-09-11T08:11:30.261Z,938.02
2022-09-11T08:12:30.272Z,938.06
2022-09-11T08:13:30.283Z,938.03
2022-09-11T08:14:30.297Z,937.92
2022-09-11T08:15:30.314Z,937.91
2022-09-11T08:16:30.359Z,937.94
2022-09-11T08:17:30.337Z,937.99
2022-09-11T08:18:30.353Z,937.98
2022-09-11T08:19:30.366Z,938.09
2022-09-11T08:20:30.380Z,938.10
2022-09-11T08:21:30.391Z,938.14
2022-09-11T08:22:30.404Z,938.10
2022-09-11T08:23:30.420Z,938.07
2022-09-11T08:24:30.451Z,937.96
2022-09-11T08:25:30.447Z,937.96
2022-09-11T08:26:30.458Z,937.89
2022-09-11T08:27:30.471Z,937.88
2022-09-11T08:28:30.487Z,937.90
2022-09-11T08:29:30.498Z,937.90
2022-09-11T08:30:30.513Z,937.91
2022-09-11T08:31:30.684Z,937.92
2022-09-11T08:32:30.540Z,937.90
2022-09-11T08:33:30.552Z,937.91
2022-09-11T08:34:30.566Z,937.95
2022-09-11T08:35:30.580Z,937.98
2022-09-11T08:36:30.594Z,938.01
2022-09-11T08:37:30.605Z,938.01
2022-09-11T08:38:30.620Z,938.02
2022-09-11T08:39:30.633Z,937.94
2022-09-11T08:40:30.669Z,937.95
2022-09-11T08:41:30.661Z,937.96
2022-09-11T08:42:30.673Z,937.96
2022-09-11T08:43:30.687Z,937.94
2022-09-11T08:44:30.699Z,937.94
2022-09-11T08:45:30.755Z,937.96
2022-09-11T08:46:30.727Z,937.99
2022-09-11T08:47:30.741Z,938.00
2022-09-11T08:48:30.754Z,938.03
2022-09-11T08:49:30.775Z,938.01
2022-09-11T08:50:30.782Z,938.02
2022-09-11T08:51:30.796Z,937.95
2022-09-11T08:52:30.810Z,937.96
2022-09-11T08:53:30.823Z,937.94
2022-09-11T08:54:30.835Z,937.93
2022-09-11T08:55:30.848Z,937.97
2022-09-11T08:56:30.879Z,937.97
2022-09-11T08:57:30.877Z,937.89
2022-09-11T08:58:30.888Z,937.94
2022-09-11T08:59:30.901Z,937.95
2022-09-11T09:00:30.915Z,938.00
2022-09-11T09:01:31.070Z,938.07
2022-09-11T09:02:30.991Z,938.09
2022-09-11T09:03:30.955Z,938.13
2022-09-11T09:04:30.970Z,938.11
2022-09-11T09:05:30.982Z,938.06
2022-09-11T09:06:30.995Z,937.98
2022-09-11T09:07:31.008Z,937.94
2022-09-11T09:08:31.023Z,937.94
2022-09-11T09:09:34.918Z,937.93
2022-09-11T09:10:31.049Z,937.96
2022-09-11T09:11:31.062Z,938.00
2022-09-11T09:12:31.095Z,937.97
2022-09-11T09:13:31.088Z,937.97
2022-09-11T09:14:31.101Z,937.94
2022-09-11T09:15:31.114Z,937.95
2022-09-11T09:16:31.130Z,937.93
2022-09-11T09:17:31.141Z,937.90
2022-09-11T09:18:31.154Z,937.91
2022-09-11T09:19:31.169Z,937.85
2022-09-11T09:20:31.183Z,937.91
2022-09-11T09:21:31.195Z,937.89
2022-09-11T09:22:31.209Z,938.01
2022-09-11T09:23:31.226Z,938.10
2022-09-11T09:24:31.236Z,938.12
2022-09-11T09:25:31.252Z,938.19
2022-09-11T09:26:34.254Z,938.19
2022-09-11T09:27:31.277Z,938.20
2022-09-11T09:28:31.312Z,938.23
2022-09-11T09:29:31.301Z,938.23
2022-09-11T09:30:31.314Z,938.27
2022-09-11T09:31:31.432Z,938.20
2022-09-11T09:32:31.343Z,938.25
2022-09-11T09:33:31.356Z,938.21
2022-09-11T09:34:31.369Z,938.20
2022-09-11T09:35:31.382Z,938.18
2022-09-11T09:36:31.398Z,938.15
2022-09-11T09:37:31.407Z,938.14
2022-09-11T09:38:31.433Z,938.16
2022-09-11T09:39:31.434Z,938.15
2022-09-11T09:40:31.448Z,938.17
2022-09-11T09:41:31.461Z,938.14
2022-09-11T09:42:31.476Z,938.19
2022-09-11T09:43:32.298Z,938.20
2022-09-11T09:44:31.519Z,938.28
2022-09-11T09:45:31.514Z,938.33
2022-09-11T09:46:31.730Z,938.32
2022-09-11T09:47:31.546Z,938.31
2022-09-11T09:48:31.554Z,938.28
2022-09-11T09:49:31.569Z,938.24
2022-09-11T09:50:31.579Z,938.24
2022-09-11T09:51:31.595Z,938.27
2022-09-11T09:52:31.607Z,938.27
2022-09-11T09:53:31.619Z,938.32
2022-09-11T09:54:31.633Z,938.31
2022-09-11T09:55:31.647Z,938.34
2022-09-11T09:56:31.662Z,938.29
2022-09-11T09:57:31.674Z,938.28
2022-09-11T09:58:31.689Z,938.22
2022-09-11T09:59:31.701Z,938.26
2022-09-11T10:00:31.732Z,938.26
2022-09-11T10:01:31.754Z,938.37
2022-09-11T10:02:31.773Z,938.38
2022-09-11T10:03:31.753Z,938.43
2022-09-11T10:04:31.767Z,938.40
2022-09-11T10:05:31.779Z,938.44
2022-09-11T10:06:31.793Z,938.48
2022-09-11T10:07:31.806Z,938.50
2022-09-11T10:08:31.822Z,938.51
2022-09-11T10:09:31.833Z,938.54
2022-09-11T10:10:31.846Z,938.57
2022-09-11T10:11:31.860Z,938.51
2022-09-11T10:12:31.874Z,938.47
2022-09-11T10:13:31.885Z,938.46
2022-09-11T10:14:50.345Z,938.48
2022-09-11T10:15:31.963Z,938.52
2022-09-11T10:16:31.944Z,938.53
2022-09-11T10:17:31.937Z,938.53
2022-09-11T10:18:31.951Z,938.53
2022-09-11T10:19:31.964Z,938.53
2022-09-11T10:20:31.979Z,938.55
2022-09-11T10:21:31.991Z,938.63
2022-09-11T10:22:32.003Z,938.63
2022-09-11T10:23:32.018Z,938.64
2022-09-11T10:24:32.031Z,938.60
2022-09-11T10:25:32.045Z,938.53
2022-09-11T10:26:32.057Z,938.52
2022-09-11T10:27:32.072Z,938.48
2022-09-11T10:28:32.086Z,938.44
2022-09-11T10:29:32.098Z,938.43
2022-09-11T10:30:32.110Z,938.48
2022-09-11T10:31:32.123Z,938.52
2022-09-11T10:32:32.155Z,938.47
2022-09-11T10:33:32.148Z,938.54
2022-09-11T10:34:32.164Z,938.47
2022-09-11T10:35:32.176Z,938.55
2022-09-11T10:36:32.192Z,938.57
2022-09-11T10:37:32.203Z,938.58
2022-09-11T10:38:32.218Z,938.54
2022-09-11T10:39:32.227Z,938.58
2022-09-11T10:40:32.241Z,938.60
2022-09-11T10:41:32.257Z,938.61
2022-09-11T10:42:32.267Z,938.68
2022-09-11T10:43:32.283Z,938.75
2022-09-11T10:44:32.295Z,938.76
2022-09-11T10:45:32.366Z,938.79
2022-09-11T10:46:38.587Z,938.78
2022-09-11T10:47:32.332Z,938.73
2022-09-11T10:48:32.365Z,938.82
2022-09-11T10:49:32.360Z,938.86
2022-09-11T10:50:32.373Z,938.92
2022-09-11T10:51:32.385Z,938.90
2022-09-11T10:52:32.401Z,938.93
2022-09-11T10:53:32.437Z,938.95
2022-09-11T10:54:32.426Z,938.98
2022-09-11T10:55:32.440Z,938.92
2022-09-11T10:56:32.455Z,938.91
2022-09-11T10:57:32.464Z,938.90
2022-09-11T10:58:32.478Z,938.93
2022-09-11T10:59:32.491Z,938.93
2022-09-11T11:00:32.507Z,938.94
2022-09-11T11:01:32.554Z,938.97
2022-09-11T11:02:32.562Z,938.99
2022-09-11T11:03:32.543Z,939.02
2022-09-11T11:04:32.576Z,939.02
2022-09-11T11:05:32.568Z,939.02
2022-09-11T11:06:32.591Z,939.03
2022-09-11T11:07:32.597Z,939.01
2022-09-11T11:08:32.610Z,939.04
2022-09-11T11:09:32.621Z,939.10
2022-09-11T11:10:32.636Z,939.09
2022-09-11T11:11:32.652Z,939.14
2022-09-11T11:12:32.672Z,939.13
2022-09-11T11:13:32.674Z,939.14
2022-09-11T11:14:32.690Z,939.15
2022-09-11T11:15:32.703Z,939.13
2022-09-11T11:16:32.716Z,939.11
2022-09-11T11:17:32.727Z,939.13
2022-09-11T11:18:32.739Z,939.11
2022-09-11T11:19:32.754Z,939.12
2022-09-11T11:20:32.784Z,939.06
2022-09-11T11:21:32.780Z,939.11
2022-09-11T11:22:32.791Z,939.08
2022-09-11T11:23:32.810Z,939.10
2022-09-11T11:24:32.819Z,939.14
2022-09-11T11:25:32.831Z,939.15
2022-09-11T11:26:32.848Z,939.15
2022-09-11T11:27:32.859Z,939.13
2022-09-11T11:28:32.872Z,939.13
2022-09-11T11:29:32.885Z,939.21
2022-09-11T11:30:32.898Z,939.19
2022-09-11T11:31:32.944Z,939.26
2022-09-11T11:32:32.925Z,939.29
2022-09-11T11:33:32.936Z,939.27
2022-09-11T11:34:32.949Z,939.20
2022-09-11T11:35:32.965Z,939.24
2022-09-11T11:36:32.995Z,939.20
2022-09-11T11:37:32.989Z,939.22
2022-09-11T11:38:33.008Z,939.16
2022-09-11T11:39:33.015Z,939.21
2022-09-11T11:40:33.029Z,939.21
2022-09-11T11:41:33.041Z,939.20
2022-09-11T11:42:33.053Z,939.20
2022-09-11T11:43:33.067Z,939.25
2022-09-11T11:44:33.081Z,939.24
2022-09-11T11:45:33.173Z,939.23
2022-09-11T11:46:33.107Z,939.20
2022-09-11T11:47:33.121Z,939.19
2022-09-11T11:48:33.267Z,939.20
2022-09-11T11:49:33.145Z,939.24
2022-09-11T11:50:33.160Z,939.22
2022-09-11T11:51:33.174Z,939.23
2022-09-11T11:52:33.206Z,939.30
2022-09-11T11:53:33.197Z,939.32
2022-09-11T11:54:33.211Z,939.29
2022-09-11T11:55:33.226Z,939.32
2022-09-11T11:56:33.240Z,939.33
2022-09-11T11:57:33.251Z,939.29
2022-09-11T11:58:33.380Z,939.33
2022-09-11T11:59:33.276Z,939.31
2022-09-11T12:00:33.289Z,939.32
2022-09-11T12:01:33.327Z,939.38
2022-09-11T12:02:33.317Z,939.38
2022-09-11T12:03:33.392Z,939.41
2022-09-11T12:04:33.341Z,939.32
2022-09-11T12:05:33.354Z,939.33
2022-09-11T12:06:33.373Z,939.29
2022-09-11T12:07:33.383Z,939.33
2022-09-11T12:08:33.540Z,939.35
2022-09-11T12:09:34.081Z,939.39
2022-09-11T12:10:33.430Z,939.36
2022-09-11T12:11:33.433Z,939.36
2022-09-11T12:12:33.445Z,939.38
2022-09-11T12:13:33.459Z,939.42
2022-09-11T12:14:33.472Z,939.44
2022-09-11T12:15:33.486Z,939.42
2022-09-11T12:16:33.530Z,939.35
2022-09-11T12:17:33.509Z,939.34
2022-09-11T12:18:33.556Z,939.33
2022-09-11T12:19:33.537Z,939.29
2022-09-11T12:20:33.550Z,939.35
2022-09-11T12:21:33.561Z,939.34
2022-09-11T12:22:33.584Z,939.31
2022-09-11T12:23:33.593Z,939.28
2022-09-11T12:24:33.626Z,939.28
2022-09-11T12:25:33.615Z,939.32
2022-09-11T12:26:33.633Z,939.24
2022-09-11T12:27:33.642Z,939.26
2022-09-11T12:28:33.658Z,939.29